createdAt,value
2018-10-01T00:02:12.066Z,6.80
2018-10-01T00:04:40.037Z,6.83
2018-10-01T00:07:12.622Z,6.63
2018-10-01T00:09:40.851Z,5.43
2018-10-01T00:12:09.842Z,6.77
2018-10-01T00:14:38.284Z,7.67
2018-10-01T00:17:06.849Z,4.93
2018-10-01T00:19:40.421Z,4.00
2018-10-01T00:22:14.253Z,4.30
2018-10-01T00:24:43.269Z,2.97
2018-10-01T00:27:12.016Z,2.37
2018-10-01T00:29:40.190Z,1.77
2018-10-01T00:32:09.210Z,2.90
2018-10-01T00:34:37.452Z,2.90
2018-10-01T00:37:06.799Z,2.13
2018-10-01T00:39:34.900Z,3.40
2018-10-01T00:42:03.586Z,3.37
2018-10-01T00:44:31.983Z,3.90
2018-10-01T00:47:00.490Z,4.60
2018-10-01T00:49:28.746Z,4.10
2018-10-01T00:51:57.102Z,5.17
2018-10-01T00:54:25.990Z,4.73
2018-10-01T00:56:55.084Z,4.93
2018-10-01T00:59:23.877Z,3.07
2018-10-01T01:01:52.199Z,3.63
2018-10-01T01:04:20.645Z,5.23
2018-10-01T01:06:50.215Z,6.07
2018-10-01T01:09:19.180Z,5.03
2018-10-01T01:11:49.061Z,5.50
2018-10-01T01:14:17.351Z,4.67
2018-10-01T01:16:46.741Z,3.93
2018-10-01T01:19:15.514Z,2.40
2018-10-01T01:21:43.498Z,3.17
2018-10-01T01:24:11.458Z,2.67
2018-10-01T01:26:40.469Z,2.53
2018-10-01T01:29:08.864Z,3.47
2018-10-01T01:31:37.460Z,2.63
2018-10-01T01:34:06.584Z,2.63
2018-10-01T01:36:35.301Z,2.83
2018-10-01T01:39:04.313Z,1.97
2018-10-01T01:41:32.900Z,2.50
2018-10-01T01:44:05.815Z,2.40
2018-10-01T01:46:34.156Z,1.80
2018-10-01T01:49:02.868Z,2.20
2018-10-01T01:51:31.204Z,1.77
2018-10-01T01:53:59.736Z,2.77
2018-10-01T01:56:29.247Z,2.90
2018-10-01T01:58:58.151Z,2.60
2018-10-01T02:01:27.477Z,3.67
2018-10-01T02:03:55.851Z,4.20
2018-10-01T02:06:23.905Z,4.17
2018-10-01T02:08:52.831Z,4.60
2018-10-01T02:11:21.272Z,4.27
2018-10-01T02:13:49.394Z,4.90
2018-10-01T02:16:17.645Z,3.80
2018-10-01T02:18:45.638Z,5.00
2018-10-01T02:21:13.594Z,4.30
2018-10-01T02:23:42.667Z,3.27
2018-10-01T02:26:50.273Z,4.80
2018-10-01T02:29:18.342Z,2.37
2018-10-01T02:31:46.188Z,1.53
2018-10-01T02:34:14.234Z,2.10
2018-10-01T02:36:42.198Z,2.40
2018-10-01T02:39:11.783Z,1.50
2018-10-01T02:41:39.805Z,2.60
2018-10-01T02:44:07.758Z,2.30
2018-10-01T02:46:35.847Z,4.20
2018-10-01T02:49:03.954Z,3.73
2018-10-01T02:51:35.385Z,3.97
2018-10-01T02:54:08.663Z,4.30
2018-10-01T02:56:36.518Z,3.40
2018-10-01T02:59:04.466Z,2.83
2018-10-01T03:01:32.395Z,3.03
2018-10-01T03:04:00.248Z,1.93
2018-10-01T03:06:28.192Z,2.50
2018-10-01T03:08:56.049Z,2.00
2018-10-01T03:11:24.047Z,2.17
2018-10-01T03:13:51.937Z,2.10
2018-10-01T03:16:19.880Z,2.10
2018-10-01T03:18:47.833Z,1.80
2018-10-01T03:21:15.837Z,2.30
2018-10-01T03:23:43.719Z,2.03
2018-10-01T03:26:11.610Z,2.10
2018-10-01T03:28:39.509Z,2.07
2018-10-01T03:31:07.454Z,1.97
2018-10-01T03:33:35.357Z,2.00
2018-10-01T03:36:03.255Z,2.10
2018-10-01T03:38:31.155Z,1.37
2018-10-01T03:40:59.123Z,2.13
2018-10-01T03:43:26.978Z,2.27
2018-10-01T03:45:54.923Z,2.40
2018-10-01T03:48:22.815Z,2.27
2018-10-01T03:50:50.850Z,1.87
2018-10-01T03:53:18.863Z,2.00
2018-10-01T03:55:46.805Z,2.30
2018-10-01T03:58:14.675Z,1.97
2018-10-01T04:00:42.561Z,2.30
2018-10-01T04:03:10.598Z,1.47
2018-10-01T04:05:38.735Z,2.17
2018-10-01T04:08:06.593Z,2.13
2018-10-01T04:10:34.481Z,2.10
2018-10-01T04:13:02.473Z,1.60
2018-10-01T04:15:30.548Z,2.17
2018-10-01T04:17:58.530Z,2.30
2018-10-01T04:20:26.466Z,2.03
2018-10-01T04:22:54.421Z,2.00
2018-10-01T04:25:22.641Z,1.80
2018-10-01T04:27:50.639Z,1.93
2018-10-01T04:30:19.048Z,2.50
2018-10-01T04:32:47.116Z,2.13
2018-10-01T04:35:15.182Z,2.20
2018-10-01T04:37:43.094Z,2.00
2018-10-01T04:40:11.013Z,2.13
2018-10-01T04:42:39.111Z,2.17
2018-10-01T04:45:07.187Z,2.63
2018-10-01T04:47:35.291Z,2.20
2018-10-01T04:50:03.291Z,2.90
2018-10-01T04:52:31.619Z,2.23
2018-10-01T04:54:59.609Z,2.13
2018-10-01T04:57:27.587Z,3.17
2018-10-01T04:59:55.585Z,3.07
2018-10-01T05:02:23.499Z,3.57
2018-10-01T05:04:51.486Z,3.50
2018-10-01T05:07:19.423Z,2.30
2018-10-01T05:09:47.493Z,3.10
2018-10-01T05:12:15.544Z,3.50
2018-10-01T05:14:44.194Z,2.17
2018-10-01T05:17:12.100Z,4.27
2018-10-01T05:19:40.023Z,4.00
2018-10-01T05:22:07.974Z,3.10
2018-10-01T05:24:35.985Z,3.80
2018-10-01T05:27:03.888Z,2.37
2018-10-01T05:29:32.145Z,4.00
2018-10-01T05:32:00.451Z,3.27
2018-10-01T05:34:28.384Z,4.20
2018-10-01T05:36:56.563Z,3.80
2018-10-01T05:39:24.535Z,4.50
2018-10-01T05:41:52.641Z,4.90
2018-10-01T05:44:20.649Z,3.97
2018-10-01T05:46:48.600Z,5.03
2018-10-01T05:49:16.723Z,4.20
2018-10-01T05:51:44.692Z,3.53
2018-10-01T05:54:12.586Z,3.83
2018-10-01T05:56:40.724Z,3.70
2018-10-01T05:59:09.084Z,4.73
2018-10-01T06:01:37.265Z,4.43
2018-10-01T06:04:05.322Z,5.23
2018-10-01T06:06:33.240Z,5.43
2018-10-01T06:09:02.219Z,4.27
2018-10-01T06:11:30.147Z,5.40
2018-10-01T06:13:58.111Z,6.00
2018-10-01T06:16:26.230Z,2.50
2018-10-01T06:18:54.202Z,4.73
2018-10-01T06:21:22.172Z,5.33
2018-10-01T06:23:56.642Z,3.93
2018-10-01T06:26:24.542Z,3.40
2018-10-01T06:28:52.548Z,3.33
2018-10-01T06:31:20.633Z,3.53
2018-10-01T06:33:49.567Z,3.87
2018-10-01T06:36:17.783Z,3.70
2018-10-01T06:38:45.748Z,3.83
2018-10-01T06:41:13.737Z,2.90
2018-10-01T06:43:41.909Z,2.50
2018-10-01T06:46:10.024Z,3.57
2018-10-01T06:48:38.031Z,3.67
2018-10-01T06:51:06.465Z,2.70
2018-10-01T06:53:34.414Z,2.40
2018-10-01T06:56:02.404Z,3.43
2018-10-01T06:58:30.560Z,4.47
2018-10-01T07:00:59.166Z,2.80
2018-10-01T07:03:27.180Z,3.87
2018-10-01T07:05:55.372Z,3.50
2018-10-01T07:08:23.315Z,3.10
2018-10-01T07:10:52.253Z,3.20
2018-10-01T07:13:20.431Z,3.53
2018-10-01T07:15:48.419Z,3.40
2018-10-01T07:18:23.399Z,2.27
2018-10-01T07:20:52.319Z,2.77
2018-10-01T07:23:22.453Z,3.72
2018-10-01T07:25:51.156Z,2.20
2018-10-01T07:28:19.123Z,2.00
2018-10-01T07:30:47.868Z,1.43
2018-10-01T07:33:15.828Z,2.07
2018-10-01T07:35:44.694Z,2.50
2018-10-01T07:38:13.274Z,2.20
2018-10-01T07:40:41.487Z,1.80
2018-10-01T07:43:09.539Z,1.70
2018-10-01T07:45:37.709Z,2.17
2018-10-01T07:48:05.727Z,2.20
2018-10-01T07:50:33.865Z,2.50
2018-10-01T07:53:01.867Z,2.70
2018-10-01T07:55:29.837Z,2.00
2018-10-01T07:57:58.050Z,2.20
2018-10-01T08:00:26.110Z,2.27
2018-10-01T08:02:54.268Z,2.17
2018-10-01T08:05:22.477Z,3.17
2018-10-01T08:07:50.386Z,2.50
2018-10-01T08:10:18.690Z,2.83
2018-10-01T08:12:46.729Z,2.40
2018-10-01T08:15:16.649Z,2.00
2018-10-01T08:17:44.574Z,1.80
2018-10-01T08:20:12.696Z,1.80
2018-10-01T08:22:40.594Z,1.50
2018-10-01T08:25:08.584Z,2.30
2018-10-01T08:27:36.585Z,1.73
2018-10-01T08:30:04.791Z,2.60
2018-10-01T08:32:32.893Z,1.90
2018-10-01T08:35:00.829Z,4.37
2018-10-01T08:37:28.910Z,2.20
2018-10-01T08:39:56.933Z,1.63
2018-10-01T08:42:24.970Z,2.33
2018-10-01T08:44:53.106Z,1.70
2018-10-01T08:47:21.456Z,2.13
2018-10-01T08:52:01.805Z,2.13
2018-10-01T08:54:34.556Z,2.73
2018-10-01T08:57:02.767Z,3.40
2018-10-01T08:59:31.063Z,2.00
2018-10-01T09:01:59.646Z,3.70
2018-10-01T09:04:27.665Z,2.43
2018-10-01T09:06:55.759Z,2.20
2018-10-01T09:09:23.702Z,3.00
2018-10-01T09:11:51.667Z,2.30
2018-10-01T09:14:19.800Z,1.43
2018-10-01T09:16:47.754Z,1.57
2018-10-01T09:19:15.951Z,1.83
2018-10-01T09:21:43.868Z,2.43
2018-10-01T09:24:12.768Z,2.03
2018-10-01T09:26:40.862Z,1.73
2018-10-01T09:29:08.968Z,1.67
2018-10-01T09:31:37.028Z,2.10
2018-10-01T09:34:05.208Z,2.00
2018-10-01T09:36:33.153Z,2.10
2018-10-01T09:39:01.228Z,3.90
2018-10-01T09:41:29.330Z,1.83
2018-10-01T09:43:57.912Z,1.50
2018-10-01T09:46:26.350Z,2.83
2018-10-01T09:48:54.530Z,1.67
2018-10-01T09:51:23.349Z,1.53
2018-10-01T09:53:51.438Z,1.70
2018-10-01T09:56:19.509Z,3.73
2018-10-01T09:58:47.767Z,2.80
2018-10-01T10:01:16.528Z,2.10
2018-10-01T10:03:44.922Z,2.20
2018-10-01T10:06:13.659Z,1.40
2018-10-01T10:08:41.821Z,1.60
2018-10-01T10:11:10.524Z,3.30
2018-10-01T10:13:38.695Z,1.73
2018-10-01T10:16:07.712Z,1.73
2018-10-01T10:18:35.737Z,2.60
2018-10-01T10:21:03.925Z,2.17
2018-10-01T10:23:31.923Z,1.20
2018-10-01T10:26:00.099Z,1.33
2018-10-01T10:28:28.127Z,1.30
2018-10-01T10:30:56.117Z,1.10
2018-10-01T10:33:24.151Z,1.30
2018-10-01T10:35:53.482Z,1.20
2018-10-01T10:38:21.629Z,1.73
2018-10-01T10:40:49.990Z,1.10
2018-10-01T10:43:18.820Z,1.47
2018-10-01T10:45:46.864Z,1.03
2018-10-01T10:48:15.057Z,2.37
2018-10-01T10:50:45.021Z,1.10
2018-10-01T10:53:12.992Z,1.77
2018-10-01T10:55:41.094Z,1.10
2018-10-01T10:58:09.304Z,1.63
2018-10-01T11:00:37.237Z,3.13
2018-10-01T11:03:05.254Z,1.30
2018-10-01T11:05:33.370Z,1.03
2018-10-01T11:08:01.537Z,1.20
2018-10-01T11:10:29.718Z,1.77
2018-10-01T11:12:57.826Z,1.47
2018-10-01T11:15:26.401Z,1.37
2018-10-01T11:17:54.554Z,1.20
2018-10-01T11:20:23.210Z,1.50
2018-10-01T11:22:51.208Z,1.50
2018-10-01T11:25:19.580Z,1.90
2018-10-01T11:27:47.585Z,1.47
2018-10-01T11:30:15.534Z,1.40
2018-10-01T11:32:43.768Z,1.43
2018-10-01T11:35:11.861Z,1.67
2018-10-01T11:37:39.838Z,1.50
2018-10-01T11:40:07.925Z,1.60
2018-10-01T11:42:35.830Z,1.50
2018-10-01T11:45:04.148Z,1.60
2018-10-01T11:47:32.115Z,1.63
2018-10-01T11:50:00.051Z,1.17
2018-10-01T11:52:28.260Z,1.40
2018-10-01T11:54:57.334Z,1.50
2018-10-01T11:57:25.328Z,1.57
2018-10-01T11:59:54.322Z,1.50
2018-10-01T12:02:22.498Z,1.40
2018-10-01T12:04:50.624Z,1.20
2018-10-01T12:07:18.938Z,1.23
2018-10-01T12:09:46.987Z,0.90
2018-10-01T12:12:14.844Z,0.83
2018-10-01T12:14:42.830Z,1.20
2018-10-01T12:17:10.786Z,1.33
2018-10-01T12:19:38.886Z,1.70
2018-10-01T12:22:07.058Z,1.47
2018-10-01T12:24:35.252Z,1.40
2018-10-01T12:27:03.457Z,1.20
2018-10-01T12:29:31.427Z,1.40
2018-10-01T12:31:59.986Z,1.30
2018-10-01T12:34:28.058Z,1.20
2018-10-01T12:36:56.686Z,1.20
2018-10-01T12:39:24.659Z,1.20
2018-10-01T12:41:52.610Z,1.30
2018-10-01T12:44:20.719Z,1.00
2018-10-01T12:46:49.074Z,1.70
2018-10-01T12:49:17.437Z,1.50
2018-10-01T12:51:45.595Z,0.83
2018-10-01T12:54:14.166Z,1.00
2018-10-01T12:56:42.526Z,0.87
2018-10-01T12:59:10.731Z,1.20
2018-10-01T13:01:38.792Z,1.30
2018-10-01T13:04:06.714Z,1.17
2018-10-01T13:06:35.012Z,0.70
2018-10-01T13:09:03.265Z,1.13
2018-10-01T13:11:33.202Z,1.03
2018-10-01T13:14:01.250Z,1.37
2018-10-01T13:16:29.362Z,0.90
2018-10-01T13:18:57.501Z,0.80
2018-10-01T13:21:25.569Z,0.93
2018-10-01T13:23:53.672Z,1.00
2018-10-01T13:26:25.561Z,0.97
2018-10-01T13:28:54.821Z,1.10
2018-10-01T13:31:22.856Z,1.50
2018-10-01T13:33:50.964Z,3.93
2018-10-01T13:36:19.544Z,1.10
2018-10-01T13:38:47.606Z,1.67
2018-10-01T13:41:16.251Z,1.97
2018-10-01T13:43:44.346Z,1.30
2018-10-01T13:46:12.490Z,1.27
2018-10-01T13:48:40.504Z,0.80
2018-10-01T13:51:08.663Z,1.00
2018-10-01T13:53:36.811Z,0.83
2018-10-01T13:56:05.816Z,1.20
2018-10-01T13:58:45.439Z,1.00
2018-10-01T14:01:13.488Z,1.20
2018-10-01T14:03:41.776Z,1.40
2018-10-01T14:06:10.969Z,1.33
2018-10-01T14:08:38.998Z,1.23
2018-10-01T14:11:07.014Z,1.00
2018-10-01T14:13:35.050Z,1.97
2018-10-01T14:16:04.655Z,1.53
2018-10-01T14:18:32.756Z,1.50
2018-10-01T14:21:00.732Z,1.67
2018-10-01T14:23:28.821Z,1.50
2018-10-01T14:25:57.009Z,1.50
2018-10-01T14:28:25.036Z,0.93
2018-10-01T14:30:52.993Z,1.30
2018-10-01T14:33:21.017Z,1.07
2018-10-01T14:35:48.938Z,1.30
2018-10-01T14:38:16.975Z,0.77
2018-10-01T14:40:44.970Z,0.77
2018-10-01T14:43:12.983Z,1.10
2018-10-01T14:45:40.914Z,0.97
2018-10-01T14:48:08.868Z,1.03
2018-10-01T14:50:36.938Z,0.90
2018-10-01T14:53:05.049Z,1.00
2018-10-01T14:55:33.042Z,1.17
2018-10-01T14:58:01.615Z,0.70
2018-10-01T15:00:30.719Z,0.90
2018-10-01T15:02:58.512Z,0.80
2018-10-01T15:05:26.645Z,0.80
2018-10-01T15:07:54.639Z,1.00
2018-10-01T15:10:23.139Z,1.00
2018-10-01T15:12:51.188Z,0.70
2018-10-01T15:15:20.401Z,0.90
2018-10-01T15:17:48.534Z,1.00
2018-10-01T15:20:16.749Z,1.03
2018-10-01T15:22:44.872Z,1.10
2018-10-01T15:25:12.948Z,0.97
2018-10-01T15:27:40.991Z,0.87
2018-10-01T15:30:09.173Z,1.10
2018-10-01T15:32:37.218Z,1.00
2018-10-01T15:35:05.462Z,1.10
2018-10-01T15:37:33.593Z,1.17
2018-10-01T15:40:01.563Z,1.63
2018-10-01T15:42:29.626Z,1.30
2018-10-01T15:44:57.562Z,1.50
2018-10-01T15:47:26.236Z,1.20
2018-10-01T15:49:54.470Z,1.30
2018-10-01T15:52:22.620Z,1.40
2018-10-01T15:54:50.832Z,1.40
2018-10-01T15:57:18.966Z,2.17
2018-10-01T15:59:46.867Z,1.27
2018-10-01T16:02:16.714Z,2.07
2018-10-01T16:04:44.859Z,1.63
2018-10-01T16:07:12.991Z,1.60
2018-10-01T16:09:41.575Z,1.37
2018-10-01T16:12:09.859Z,1.70
2018-10-01T16:14:44.514Z,1.80
2018-10-01T16:17:12.513Z,2.00
2018-10-01T16:19:40.401Z,1.80
2018-10-01T16:22:08.381Z,2.50
2018-10-01T16:24:36.648Z,2.20
2018-10-01T16:27:05.788Z,2.63
2018-10-01T16:29:34.943Z,3.00
2018-10-01T16:32:03.675Z,2.33
2018-10-01T16:34:32.140Z,2.40
2018-10-01T16:37:01.573Z,3.40
2018-10-01T16:39:29.686Z,3.10
2018-10-01T16:41:57.688Z,3.10
2018-10-01T16:44:25.688Z,2.50
2018-10-01T16:46:53.757Z,3.40
2018-10-01T16:49:22.010Z,4.10
2018-10-01T16:51:49.926Z,3.60
2018-10-01T16:54:17.961Z,4.40
2018-10-01T16:56:45.892Z,3.30
2018-10-01T16:59:13.919Z,3.70
2018-10-01T17:01:42.128Z,3.70
2018-10-01T17:04:11.673Z,4.20
2018-10-01T17:06:39.619Z,3.60
2018-10-01T17:09:08.358Z,3.67
2018-10-01T17:11:36.483Z,3.47
2018-10-01T17:14:04.594Z,3.70
2018-10-01T17:16:32.489Z,3.63
2018-10-01T17:19:00.439Z,5.17
2018-10-01T17:21:28.401Z,6.00
2018-10-01T17:23:56.397Z,7.03
2018-10-01T17:26:24.346Z,7.50
2018-10-01T17:28:52.542Z,6.17
2018-10-01T17:31:21.399Z,6.37
2018-10-01T17:33:52.593Z,6.57
2018-10-01T17:36:20.608Z,6.73
2018-10-01T17:38:49.337Z,6.47
2018-10-01T17:41:17.909Z,6.93
2018-10-01T17:43:46.791Z,6.80
2018-10-01T17:46:14.940Z,5.63
2018-10-01T17:48:47.774Z,7.67
2018-10-01T17:51:17.415Z,7.70
2018-10-01T17:53:45.516Z,8.83
2018-10-01T17:56:13.378Z,9.10
2018-10-01T17:58:41.957Z,9.53
2018-10-01T18:01:09.989Z,11.00
2018-10-01T18:03:37.986Z,9.60
2018-10-01T18:06:06.047Z,9.90
2018-10-01T18:08:34.070Z,9.17
2018-10-01T18:11:02.146Z,8.67
2018-10-01T18:13:30.319Z,7.17
2018-10-01T18:15:58.286Z,7.10
2018-10-01T18:18:26.206Z,8.13
2018-10-01T18:20:54.300Z,7.23
2018-10-01T18:23:22.225Z,7.83
2018-10-01T18:25:50.196Z,7.53
2018-10-01T18:28:18.239Z,7.77
2018-10-01T18:30:46.307Z,6.30
2018-10-01T18:33:14.386Z,6.97
2018-10-01T18:35:43.051Z,5.80
2018-10-01T18:38:13.196Z,5.80
2018-10-01T18:40:42.932Z,5.40
2018-10-01T18:43:11.733Z,5.57
2018-10-01T18:45:39.767Z,4.80
2018-10-01T18:48:07.809Z,5.37
2018-10-01T18:50:35.836Z,5.60
2018-10-01T18:53:03.784Z,5.97
2018-10-01T18:55:31.727Z,5.80
2018-10-01T18:57:59.650Z,5.97
2018-10-01T19:00:27.594Z,5.40
2018-10-01T19:02:55.685Z,5.87
2018-10-01T19:05:23.980Z,5.67
2018-10-01T19:07:51.866Z,7.10
2018-10-01T19:10:20.748Z,7.00
2018-10-01T19:12:49.073Z,8.50
2018-10-01T19:15:18.048Z,8.60
2018-10-01T19:17:46.428Z,6.47
2018-10-01T19:20:14.310Z,7.33
2018-10-01T19:22:42.548Z,6.87
2018-10-01T19:25:10.748Z,6.50
2018-10-01T19:27:39.728Z,5.67
2018-10-01T19:30:07.991Z,6.47
2018-10-01T19:32:35.860Z,5.90
2018-10-01T19:35:04.002Z,6.03
2018-10-01T19:37:32.220Z,6.63
2018-10-01T19:40:01.581Z,5.87
2018-10-01T19:42:30.577Z,6.40
2018-10-01T19:44:59.265Z,7.57
2018-10-01T19:50:05.193Z,6.23
2018-10-01T19:52:35.303Z,7.00
2018-10-01T19:55:03.560Z,6.93
2018-10-01T19:57:31.740Z,6.80
2018-10-01T20:00:01.051Z,7.37
2018-10-01T20:02:29.745Z,8.97
2018-10-01T20:04:57.761Z,8.10
2018-10-01T20:07:28.809Z,8.63
2018-10-01T20:09:57.157Z,7.53
2018-10-01T20:12:25.199Z,6.93
2018-10-01T20:14:53.869Z,7.10
2018-10-01T20:17:22.554Z,7.67
2018-10-01T20:19:50.529Z,7.33
2018-10-01T20:22:19.509Z,12.70
2018-10-01T20:24:48.001Z,12.23
2018-10-01T20:27:15.991Z,9.73
2018-10-01T20:29:44.258Z,9.77
2018-10-01T20:32:12.924Z,10.23
2018-10-01T20:34:40.905Z,9.83
2018-10-01T20:37:08.852Z,13.07
2018-10-01T20:39:36.978Z,9.57
2018-10-01T20:42:05.007Z,6.50
2018-10-01T20:44:32.970Z,8.17
2018-10-01T20:47:01.063Z,7.00
2018-10-01T20:49:28.954Z,6.30
2018-10-01T20:51:56.966Z,6.13
2018-10-01T20:54:24.903Z,6.60
2018-10-01T20:56:52.932Z,6.73
2018-10-01T20:59:20.992Z,7.43
2018-10-01T21:01:48.919Z,6.97
2018-10-01T21:04:16.900Z,7.03
2018-10-01T21:06:44.806Z,6.13
2018-10-01T21:09:13.457Z,6.57
2018-10-01T21:11:44.869Z,6.87
2018-10-01T21:14:12.981Z,6.33
2018-10-01T21:16:40.854Z,7.60
2018-10-01T21:19:08.798Z,7.27
2018-10-01T21:21:36.678Z,7.70
2018-10-01T21:24:04.801Z,6.43
2018-10-01T21:26:32.730Z,7.30
2018-10-01T21:29:00.696Z,7.47
2018-10-01T21:31:28.699Z,6.93
2018-10-01T21:33:56.703Z,7.67
2018-10-01T21:36:24.854Z,8.07
2018-10-01T21:38:52.760Z,7.13
2018-10-01T21:41:20.894Z,7.53
2018-10-01T21:43:48.913Z,8.17
2018-10-01T21:46:16.789Z,8.57
2018-10-01T21:48:44.875Z,8.07
2018-10-01T21:51:12.908Z,7.67
2018-10-01T21:53:40.921Z,7.63
2018-10-01T21:56:08.845Z,7.60
2018-10-01T21:58:36.738Z,8.17
2018-10-01T22:01:10.225Z,7.70
2018-10-01T22:03:38.199Z,8.33
2018-10-01T22:06:06.186Z,7.60
2018-10-01T22:08:34.095Z,7.53
2018-10-01T22:11:01.970Z,8.43
2018-10-01T22:13:30.084Z,7.63
2018-10-01T22:15:58.010Z,9.83
2018-10-01T22:18:25.939Z,7.97
2018-10-01T22:20:53.869Z,9.37
2018-10-01T22:23:21.841Z,7.63
2018-10-01T22:25:49.746Z,10.00
2018-10-01T22:28:17.661Z,10.10
2018-10-01T22:30:45.756Z,13.90
2018-10-01T22:33:13.717Z,10.43
2018-10-01T22:35:41.626Z,15.17
2018-10-01T22:38:10.283Z,12.77
2018-10-01T22:40:38.399Z,15.23
2018-10-01T22:43:06.600Z,13.67
2018-10-01T22:45:35.944Z,14.20
2018-10-01T22:48:04.116Z,13.47
2018-10-01T22:50:34.596Z,13.10
2018-10-01T22:53:02.615Z,11.27
2018-10-01T22:55:30.562Z,11.53
2018-10-01T22:57:58.912Z,10.87
2018-10-01T23:00:28.109Z,14.60
2018-10-01T23:02:56.146Z,12.37
2018-10-01T23:05:26.254Z,12.60
2018-10-01T23:07:54.689Z,15.60
2018-10-01T23:10:24.256Z,14.43
2018-10-01T23:12:52.379Z,14.33
2018-10-01T23:15:21.855Z,13.33
2018-10-01T23:17:50.549Z,13.67
2018-10-01T23:20:19.707Z,12.73
2018-10-01T23:22:48.084Z,12.53
2018-10-01T23:25:16.019Z,12.30
2018-10-01T23:27:43.968Z,11.27
2018-10-01T23:30:12.656Z,11.50
2018-10-01T23:32:40.657Z,11.40
2018-10-01T23:35:08.668Z,11.87
2018-10-01T23:37:37.493Z,12.17
2018-10-01T23:40:05.557Z,13.33
2018-10-01T23:42:34.327Z,10.47
2018-10-01T23:45:03.074Z,8.73
2018-10-01T23:47:31.517Z,10.43
2018-10-01T23:49:59.825Z,11.40
2018-10-01T23:52:28.058Z,10.87
2018-10-01T23:54:56.610Z,11.33
2018-10-01T23:57:25.273Z,10.27
2018-10-01T23:59:53.273Z,9.27
